METAR AND TAF INFORMATION
METAR FOR KATL
KATL 270452Z 18006KT 10SM BKN180 BKN250 16/05 A3002 RMK AO2 SLP161 T01610050 402280067
KATL 270352Z 17007KT 10SM BKN180 BKN250 17/03 A3002 RMK AO2 SLP160 T01670028
KATL 270252Z 16008KT 10SM SCT180 BKN250 17/01 A3002 RMK AO2 SLP162 T01670011 50003
KATL 270528Z 2706/2812 19008KT P6SM SCT250
FM270900 19007KT P6SM BKN015
FM271200 19007KT P6SM -SHRA FEW008 BKN012
FM271600 20010G20KT P6SM BKN020
FM271900 20012G22KT P6SM BKN035
FM272200 19012G22KT P6SM SCT035 SCT050
FM280200 20012G22KT P6SM SCT250
FM280800 20012G25KT P6SM OVC015

 AIRPORT MAP

 RUNWAY INFORMATION
Runway 08L Runway length 9000 ft Runway width 150 ft
Runway elevation 1015 ft Runway displaced threshold 0 ft Runway heading 90
Runway 26R Runway length 9000 ft Runway width 150 ft
Runway elevation 990 ft Runway displaced threshold 0 ft Runway heading 270
Runway 08R Runway length 10000 ft Runway width 150 ft
Runway elevation 1024 ft Runway displaced threshold 0 ft Runway heading 90
Runway 26L Runway length 10000 ft Runway width 150 ft
Runway elevation 995 ft Runway displaced threshold 0 ft Runway heading 270
Runway 09L Runway length 11890 ft Runway width 150 ft
Runway elevation 1019 ft Runway displaced threshold 0 ft Runway heading 90
Runway 27R Runway length 11890 ft Runway width 150 ft
Runway elevation 978 ft Runway displaced threshold 0 ft Runway heading 270
Runway 09R Runway length 9001 ft Runway width 150 ft
Runway elevation 1026 ft Runway displaced threshold 0 ft Runway heading 90
Runway 27L Runway length 9001 ft Runway width 150 ft
Runway elevation 985 ft Runway displaced threshold 0 ft Runway heading 270
Runway 10 Runway length 9000 ft Runway width 150 ft
Runway elevation 1000 ft Runway displaced threshold 0 ft Runway heading 90
Runway 28 Runway length 9000 ft Runway width 150 ft
Runway elevation 998 ft Runway displaced threshold 0 ft Runway heading 270

 AIRPORT FREQUENCIES
Type APP Name ATLANTA AP Frequency 118.35 MHZ
Type ATIS Name ATIS Frequency 119.65 MHZ
Type CLD Name CLNC DEL Frequency 118.1 MHZ
Type DEP Name ATLANTA DE Frequency 125 MHZ
Type GND Name GND Frequency 121.65 MHZ
Type RDO Name MACON RDO Frequency 116.9 MHZ
Type SFA Name SFA Frequency 30.697 MHZ
Type TWR Name ATLANTA TW Frequency 119.1 MHZ
Type UNIC Name UNICOM Frequency 122.95 MHZ

 AIRPORT NEAR NAVIGATION AIDS
Type NDB Name Catta Frequency 375 KHZ
Type VORTAC Name Atlanta Frequency 116900 KHZ
Type NDB Name Redan Frequency 266 KHZ

-